createdAt,value
2019-03-17T00:00:07.599Z,6.80
2019-03-17T00:02:42.892Z,6.80
2019-03-17T00:05:16.246Z,6.90
2019-03-17T00:07:47.863Z,6.80
2019-03-17T00:10:19.578Z,6.70
2019-03-17T00:12:51.526Z,6.60
2019-03-17T00:15:23.098Z,6.60
2019-03-17T00:17:55.827Z,6.60
2019-03-17T00:20:28.718Z,6.50
2019-03-17T00:23:02.548Z,6.60
2019-03-17T00:25:33.883Z,6.60
2019-03-17T00:28:05.392Z,6.60
2019-03-17T00:30:38.176Z,6.60
2019-03-17T00:33:10.587Z,6.60
2019-03-17T00:35:44.158Z,6.70
2019-03-17T00:38:17.294Z,6.60
2019-03-17T00:40:49.868Z,6.60
2019-03-17T00:43:21.427Z,6.70
2019-03-17T00:45:52.984Z,6.60
2019-03-17T00:48:24.450Z,6.50
2019-03-17T00:50:56.126Z,6.50
2019-03-17T00:53:28.345Z,6.50
2019-03-17T00:56:01.350Z,6.50
2019-03-17T00:58:33.334Z,6.60
2019-03-17T01:01:05.451Z,6.60
2019-03-17T01:03:38.758Z,6.70
2019-03-17T01:06:10.512Z,6.70
2019-03-17T01:08:43.806Z,6.60
2019-03-17T01:11:15.259Z,6.60
2019-03-17T01:13:46.871Z,6.50
2019-03-17T01:16:18.323Z,6.50
2019-03-17T01:18:51.302Z,6.60
2019-03-17T01:21:22.975Z,6.50
2019-03-17T01:23:54.422Z,6.50
2019-03-17T01:26:26.386Z,6.50
2019-03-17T01:28:58.355Z,6.50
2019-03-17T01:31:31.107Z,6.50
2019-03-17T01:34:02.930Z,6.50
2019-03-17T01:36:36.572Z,6.40
2019-03-17T01:39:09.315Z,6.40
2019-03-17T01:41:41.068Z,6.40
2019-03-17T01:44:14.769Z,6.40
2019-03-17T01:46:47.553Z,6.40
2019-03-17T01:49:19.128Z,6.50
2019-03-17T01:51:51.094Z,6.50
2019-03-17T01:54:23.759Z,6.50
2019-03-17T01:56:56.188Z,6.50
2019-03-17T01:59:28.266Z,6.50
2019-03-17T02:02:00.370Z,6.70
2019-03-17T02:04:33.413Z,6.60
2019-03-17T02:07:05.337Z,6.70
2019-03-17T02:09:37.545Z,6.80
2019-03-17T02:12:10.547Z,6.70
2019-03-17T02:14:43.134Z,6.70
2019-03-17T02:17:15.104Z,6.80
2019-03-17T02:19:46.542Z,6.80
2019-03-17T02:22:22.079Z,6.90
2019-03-17T02:24:52.377Z,6.90
2019-03-17T02:27:23.923Z,6.90
2019-03-17T02:29:55.357Z,6.90
2019-03-17T02:32:27.143Z,6.80
2019-03-17T02:34:59.365Z,6.90
2019-03-17T02:37:31.422Z,6.90
2019-03-17T02:40:04.459Z,6.90
2019-03-17T02:42:37.886Z,7.00
2019-03-17T02:45:10.808Z,7.00
2019-03-17T02:47:43.047Z,7.00
2019-03-17T02:50:16.784Z,7.00
2019-03-17T02:52:49.418Z,7.10
2019-03-17T02:55:21.268Z,7.00
2019-03-17T02:57:54.254Z,6.90
2019-03-17T03:00:26.502Z,7.00
2019-03-17T03:03:00.034Z,7.00
2019-03-17T03:05:31.489Z,7.00
2019-03-17T03:08:04.226Z,7.00
2019-03-17T03:10:35.852Z,7.00
2019-03-17T03:13:07.306Z,7.10
2019-03-17T03:15:39.935Z,7.10
2019-03-17T03:18:12.653Z,7.10
2019-03-17T03:20:45.853Z,7.10
2019-03-17T03:23:17.230Z,7.10
2019-03-17T03:25:48.728Z,7.20
2019-03-17T03:28:21.453Z,7.20
2019-03-17T03:30:53.860Z,7.20
2019-03-17T03:33:25.417Z,7.30
2019-03-17T03:36:09.928Z,7.30
2019-03-17T03:38:32.198Z,7.30
2019-03-17T03:41:05.372Z,7.30
2019-03-17T03:43:36.918Z,7.40
2019-03-17T03:46:09.945Z,7.40
2019-03-17T03:48:43.437Z,7.40
2019-03-17T03:51:14.824Z,7.50
2019-03-17T03:53:46.601Z,7.50
2019-03-17T03:56:18.397Z,7.50
2019-03-17T03:58:50.544Z,7.60
2019-03-17T04:01:22.022Z,7.50
2019-03-17T04:03:53.333Z,7.60
2019-03-17T04:06:27.267Z,7.60
2019-03-17T04:08:59.378Z,7.60
2019-03-17T04:11:32.107Z,7.70
2019-03-17T04:14:03.861Z,7.70
2019-03-17T04:16:35.178Z,7.60
2019-03-17T04:19:06.599Z,7.70
2019-03-17T04:21:38.679Z,7.60
2019-03-17T04:24:10.133Z,7.70
2019-03-17T04:26:42.068Z,7.70
2019-03-17T04:29:13.796Z,7.60
2019-03-17T04:31:46.439Z,7.60
2019-03-17T04:34:18.100Z,7.70
2019-03-17T04:36:50.613Z,7.80
2019-03-17T04:39:22.396Z,7.80
2019-03-17T04:41:54.399Z,7.80
2019-03-17T04:44:25.814Z,7.80
2019-03-17T04:46:57.285Z,7.80
2019-03-17T04:49:30.688Z,7.80
2019-03-17T04:52:02.609Z,7.90
2019-03-17T04:54:34.710Z,7.90
2019-03-17T04:57:06.106Z,8.00
2019-03-17T04:59:39.061Z,8.00
2019-03-17T05:02:13.639Z,8.00
2019-03-17T05:04:46.501Z,8.00
2019-03-17T05:07:18.362Z,8.00
2019-03-17T05:09:52.836Z,8.10
2019-03-17T05:12:26.425Z,8.10
2019-03-17T05:14:58.559Z,8.10
2019-03-17T05:17:30.394Z,8.10
2019-03-17T05:20:02.331Z,8.20
2019-03-17T05:22:35.575Z,8.20
2019-03-17T05:25:08.966Z,8.20
2019-03-17T05:27:40.443Z,8.20
2019-03-17T05:30:12.598Z,8.20
2019-03-17T05:32:45.101Z,8.20
2019-03-17T05:35:16.703Z,8.30
2019-03-17T05:37:49.572Z,8.30
2019-03-17T05:40:22.620Z,8.30
2019-03-17T05:42:55.136Z,8.40
2019-03-17T05:45:27.972Z,8.40
2019-03-17T05:47:59.575Z,8.40
2019-03-17T05:50:31.078Z,8.40
2019-03-17T05:53:02.547Z,8.50
2019-03-17T05:55:34.075Z,8.50
2019-03-17T05:58:07.076Z,8.60
2019-03-17T06:00:38.522Z,8.60
2019-03-17T06:03:10.457Z,8.60
2019-03-17T06:05:43.919Z,8.70
2019-03-17T06:08:16.317Z,8.80
2019-03-17T06:10:47.650Z,8.70
2019-03-17T06:13:19.932Z,8.80
2019-03-17T06:15:52.052Z,8.80
2019-03-17T06:18:24.594Z,8.80
2019-03-17T06:20:55.999Z,8.90
2019-03-17T06:23:27.482Z,8.90
2019-03-17T06:25:59.648Z,9.00
2019-03-17T06:28:31.046Z,9.00
2019-03-17T06:31:02.581Z,9.10
2019-03-17T06:33:35.219Z,9.20
2019-03-17T06:36:07.702Z,9.10
2019-03-17T06:38:39.853Z,9.10
2019-03-17T06:41:13.126Z,9.20
2019-03-17T06:43:45.492Z,9.30
2019-03-17T06:46:18.554Z,9.30
2019-03-17T06:48:52.128Z,9.30
2019-03-17T06:51:23.913Z,9.40
2019-03-17T06:53:56.877Z,9.40
2019-03-17T06:56:29.059Z,9.50
2019-03-17T06:59:00.816Z,9.50
2019-03-17T07:01:33.098Z,9.50
2019-03-17T07:04:06.121Z,9.40
2019-03-17T07:06:37.520Z,9.30
2019-03-17T07:09:08.882Z,9.30
2019-03-17T07:11:41.955Z,9.30
2019-03-17T07:14:13.539Z,9.30
2019-03-17T07:16:46.753Z,9.30
2019-03-17T07:19:18.332Z,9.40
2019-03-17T07:21:49.673Z,9.30
2019-03-17T07:24:21.040Z,9.40
2019-03-17T07:26:54.073Z,9.40
2019-03-17T07:29:27.325Z,9.50
2019-03-17T07:31:59.722Z,9.50
2019-03-17T07:34:31.603Z,9.40
2019-03-17T07:37:03.652Z,9.40
2019-03-17T07:39:35.074Z,9.40
2019-03-17T07:42:06.518Z,9.40
2019-03-17T07:44:37.817Z,9.50
2019-03-17T07:47:09.625Z,9.50
2019-03-17T07:49:42.717Z,9.50
2019-03-17T07:52:14.393Z,9.50
2019-03-17T07:54:46.259Z,9.50
2019-03-17T07:57:18.543Z,9.50
2019-03-17T07:59:50.396Z,9.40
2019-03-17T08:02:23.962Z,9.50
2019-03-17T08:04:56.284Z,9.50
2019-03-17T08:07:28.215Z,9.50
2019-03-17T08:10:01.416Z,9.60
2019-03-17T08:12:34.766Z,9.70
2019-03-17T08:15:07.113Z,9.70
2019-03-17T08:17:40.594Z,9.70
2019-03-17T08:20:14.561Z,9.70
2019-03-17T08:22:47.449Z,9.80
2019-03-17T08:25:19.232Z,9.80
2019-03-17T08:27:52.603Z,9.90
2019-03-17T08:30:24.193Z,10.00
2019-03-17T08:32:55.746Z,10.00
2019-03-17T08:35:28.739Z,10.10
2019-03-17T08:38:01.135Z,10.10
2019-03-17T08:40:32.830Z,10.10
2019-03-17T08:43:04.277Z,10.20
2019-03-17T08:45:35.582Z,10.30
2019-03-17T08:48:08.768Z,10.30
2019-03-17T08:50:41.488Z,10.40
2019-03-17T08:53:14.725Z,10.50
2019-03-17T08:55:47.750Z,10.60
2019-03-17T08:58:20.070Z,10.70
2019-03-17T09:00:52.760Z,10.80
2019-03-17T09:03:24.863Z,10.80
2019-03-17T09:05:57.642Z,10.80
2019-03-17T09:08:35.220Z,11.00
2019-03-17T09:11:04.530Z,11.20
2019-03-17T09:13:36.861Z,11.30
2019-03-17T09:16:09.992Z,11.40
2019-03-17T09:18:41.412Z,11.40
2019-03-17T09:21:14.235Z,11.40
2019-03-17T09:23:47.455Z,11.50
2019-03-17T09:26:19.224Z,11.60
2019-03-17T09:28:51.918Z,11.80
2019-03-17T09:31:23.295Z,11.80
2019-03-17T09:33:55.124Z,11.90
2019-03-17T09:36:26.921Z,11.90
2019-03-17T09:39:00.495Z,12.00
2019-03-17T09:41:35.126Z,11.90
2019-03-17T09:44:07.428Z,12.00
2019-03-17T09:46:40.359Z,12.00
2019-03-17T09:49:13.750Z,11.90
2019-03-17T09:51:46.745Z,12.00
2019-03-17T09:54:26.933Z,12.00
2019-03-17T09:57:00.286Z,12.10
2019-03-17T09:59:32.354Z,12.00
2019-03-17T10:02:05.361Z,11.80
2019-03-17T10:04:38.530Z,11.80
2019-03-17T10:07:10.571Z,12.00
2019-03-17T10:09:41.923Z,12.20
2019-03-17T10:12:14.980Z,12.30
2019-03-17T10:14:47.994Z,12.10
2019-03-17T10:17:19.591Z,12.20
2019-03-17T10:19:51.333Z,12.10
2019-03-17T10:22:23.920Z,12.10
2019-03-17T10:24:55.681Z,12.00
2019-03-17T10:27:27.431Z,12.10
2019-03-17T10:29:59.271Z,12.30
2019-03-17T10:32:31.473Z,12.30
2019-03-17T10:35:04.671Z,12.40
2019-03-17T10:37:36.043Z,12.50
2019-03-17T10:40:09.805Z,12.50
2019-03-17T10:42:41.852Z,12.50
2019-03-17T10:45:14.987Z,12.50
2019-03-17T10:47:47.166Z,12.70
2019-03-17T10:50:19.592Z,12.90
2019-03-17T10:52:51.261Z,12.90
2019-03-17T10:55:23.046Z,12.90
2019-03-17T10:57:56.516Z,13.10
2019-03-17T11:00:29.505Z,13.10
2019-03-17T11:03:02.904Z,13.30
2019-03-17T11:05:34.611Z,13.30
2019-03-17T11:08:07.726Z,13.00
2019-03-17T11:10:39.309Z,12.90
2019-03-17T11:13:10.921Z,13.00
2019-03-17T11:15:44.355Z,13.10
2019-03-17T11:18:15.759Z,13.20
2019-03-17T11:20:49.389Z,13.10
2019-03-17T11:23:22.421Z,13.20
2019-03-17T11:25:54.439Z,13.10
2019-03-17T11:28:26.031Z,13.10
2019-03-17T11:31:01.151Z,13.00
2019-03-17T11:33:32.560Z,13.00
2019-03-17T11:36:04.647Z,12.90
2019-03-17T11:38:37.704Z,12.90
2019-03-17T11:41:09.664Z,12.90
2019-03-17T11:43:42.782Z,12.90
2019-03-17T11:46:15.847Z,12.90
2019-03-17T11:48:48.145Z,12.90
2019-03-17T11:51:20.357Z,12.90
2019-03-17T11:53:52.255Z,13.00
2019-03-17T11:56:24.265Z,13.00
2019-03-17T11:58:55.641Z,13.10
2019-03-17T12:01:27.814Z,13.00
2019-03-17T12:04:01.339Z,12.90
2019-03-17T12:06:34.650Z,12.90
2019-03-17T12:09:08.482Z,13.00
2019-03-17T12:11:40.941Z,13.00
2019-03-17T12:14:12.458Z,13.00
2019-03-17T12:16:45.240Z,13.00
2019-03-17T12:19:18.783Z,13.10
2019-03-17T12:21:51.694Z,13.10
2019-03-17T12:24:24.107Z,13.10
2019-03-17T12:26:55.921Z,13.10
2019-03-17T12:29:28.441Z,13.20
2019-03-17T12:32:01.515Z,13.30
2019-03-17T12:34:33.562Z,13.30
2019-03-17T12:37:06.196Z,13.30
2019-03-17T12:39:40.373Z,13.40
2019-03-17T12:42:12.146Z,13.50
2019-03-17T12:44:43.528Z,13.50
2019-03-17T12:47:15.229Z,13.60
2019-03-17T12:49:47.106Z,13.60
2019-03-17T12:52:19.288Z,13.50
2019-03-17T12:54:50.739Z,13.50
2019-03-17T12:57:22.465Z,13.50
2019-03-17T12:59:56.138Z,13.50
2019-03-17T13:02:28.888Z,13.40
2019-03-17T13:05:01.231Z,13.40
2019-03-17T13:07:34.293Z,13.40
2019-03-17T13:10:15.631Z,13.50
2019-03-17T13:12:43.206Z,13.50
2019-03-17T13:15:14.658Z,13.60
2019-03-17T13:17:46.915Z,13.60
2019-03-17T13:20:20.006Z,13.60
2019-03-17T13:22:53.208Z,13.60
2019-03-17T13:25:26.080Z,13.70
2019-03-17T13:27:59.504Z,13.60
2019-03-17T13:30:32.278Z,13.50
2019-03-17T13:33:04.995Z,13.50
2019-03-17T13:35:37.492Z,13.50
2019-03-17T13:38:09.358Z,13.60
2019-03-17T13:40:43.956Z,13.70
2019-03-17T13:43:16.959Z,13.60
2019-03-17T13:45:49.253Z,13.70
2019-03-17T13:48:22.211Z,13.80
2019-03-17T13:50:55.261Z,13.80
2019-03-17T13:53:26.775Z,13.80
2019-03-17T13:56:00.451Z,13.70
2019-03-17T13:58:32.529Z,13.70
2019-03-17T14:01:03.999Z,13.70
2019-03-17T14:03:37.069Z,13.60
2019-03-17T14:06:08.606Z,13.50
2019-03-17T14:08:40.536Z,13.50
2019-03-17T14:11:12.257Z,13.50
2019-03-17T14:13:45.499Z,13.50
2019-03-17T14:16:16.819Z,13.70
2019-03-17T14:18:49.037Z,13.80
2019-03-17T14:21:20.974Z,13.80
2019-03-17T14:23:53.352Z,13.70
2019-03-17T14:26:25.222Z,13.80
2019-03-17T14:28:57.481Z,13.80
2019-03-17T14:31:30.299Z,13.90
2019-03-17T14:34:02.865Z,13.70
2019-03-17T14:36:34.369Z,13.60
2019-03-17T14:39:07.943Z,13.60
2019-03-17T14:41:40.179Z,13.60
2019-03-17T14:44:12.076Z,13.60
2019-03-17T14:46:45.590Z,13.50
2019-03-17T14:49:17.994Z,13.40
2019-03-17T14:51:50.123Z,13.50
2019-03-17T14:54:22.224Z,13.60
2019-03-17T14:56:54.277Z,13.40
2019-03-17T14:59:27.341Z,13.40
2019-03-17T15:02:00.630Z,13.30
2019-03-17T15:04:33.763Z,13.20
2019-03-17T15:07:05.387Z,13.20
2019-03-17T15:09:38.402Z,13.10
2019-03-17T15:12:13.391Z,13.20
2019-03-17T15:14:46.576Z,13.00
2019-03-17T15:17:18.758Z,13.00
2019-03-17T15:19:51.979Z,12.90
2019-03-17T15:22:24.074Z,12.90
2019-03-17T15:24:56.202Z,12.80
2019-03-17T15:27:29.941Z,12.70
2019-03-17T15:30:02.233Z,12.70
2019-03-17T15:32:35.692Z,12.70
2019-03-17T15:35:09.987Z,12.70
2019-03-17T15:37:43.749Z,12.80
2019-03-17T15:40:15.770Z,12.70
2019-03-17T15:42:47.857Z,12.60
2019-03-17T15:45:19.809Z,12.60
2019-03-17T15:47:53.382Z,12.50
2019-03-17T15:50:24.873Z,12.50
2019-03-17T15:52:57.215Z,12.30
2019-03-17T15:55:31.319Z,12.30
2019-03-17T15:58:05.242Z,12.20
2019-03-17T16:00:37.408Z,12.20
2019-03-17T16:03:10.458Z,12.10
2019-03-17T16:05:43.902Z,12.20
2019-03-17T16:08:16.954Z,12.10
2019-03-17T16:10:49.781Z,12.00
2019-03-17T16:13:22.210Z,11.90
2019-03-17T16:15:55.311Z,11.90
2019-03-17T16:18:28.643Z,11.90
2019-03-17T16:21:02.627Z,11.90
2019-03-17T16:23:35.871Z,11.90
2019-03-17T16:26:08.861Z,11.90
2019-03-17T16:28:41.872Z,11.80
2019-03-17T16:31:14.347Z,11.80
2019-03-17T16:33:47.369Z,11.70
2019-03-17T16:36:21.229Z,10.80
2019-03-17T16:38:54.297Z,10.10
2019-03-17T16:41:27.385Z,9.70
2019-03-17T16:44:00.496Z,9.50
2019-03-17T16:46:33.295Z,9.20
2019-03-17T16:49:05.827Z,9.10
2019-03-17T16:51:38.913Z,9.10
2019-03-17T16:54:10.896Z,8.90
2019-03-17T16:56:42.677Z,8.70
2019-03-17T16:59:14.200Z,8.70
2019-03-17T17:01:47.205Z,8.70
2019-03-17T17:04:20.201Z,8.70
2019-03-17T17:06:51.984Z,8.60
2019-03-17T17:09:24.122Z,8.70
2019-03-17T17:11:57.538Z,8.70
2019-03-17T17:14:30.828Z,8.50
2019-03-17T17:17:03.331Z,8.40
2019-03-17T17:19:36.318Z,8.50
2019-03-17T17:22:08.436Z,8.40
2019-03-17T17:24:42.907Z,8.40
2019-03-17T17:27:16.372Z,8.50
2019-03-17T17:29:48.280Z,8.40
2019-03-17T17:32:20.087Z,8.20
2019-03-17T17:34:53.594Z,8.20
2019-03-17T17:37:25.484Z,8.10
2019-03-17T17:39:57.228Z,8.10
2019-03-17T17:42:30.040Z,8.20
2019-03-17T17:45:03.000Z,8.10
2019-03-17T17:47:35.264Z,8.00
2019-03-17T17:50:09.481Z,8.10
2019-03-17T17:52:42.630Z,7.90
2019-03-17T17:55:15.654Z,7.80
2019-03-17T17:57:48.547Z,7.70
2019-03-17T18:00:22.134Z,7.60
2019-03-17T18:02:55.030Z,7.50
2019-03-17T18:05:28.834Z,7.50
2019-03-17T18:08:02.075Z,7.30
2019-03-17T18:10:35.172Z,7.30
2019-03-17T18:13:08.811Z,7.30
2019-03-17T18:15:41.843Z,7.10
2019-03-17T18:18:14.781Z,7.10
2019-03-17T18:20:47.761Z,7.00
2019-03-17T18:23:19.206Z,6.90
2019-03-17T18:25:52.611Z,6.90
2019-03-17T18:28:24.688Z,6.90
2019-03-17T18:30:57.667Z,7.00
2019-03-17T18:33:29.801Z,7.00
2019-03-17T18:36:03.249Z,7.10
2019-03-17T18:38:36.600Z,7.30
2019-03-17T18:41:09.350Z,7.40
2019-03-17T18:43:41.413Z,7.40
2019-03-17T18:46:14.886Z,7.40
2019-03-17T18:48:47.916Z,7.40
2019-03-17T18:51:21.086Z,7.50
2019-03-17T18:53:54.507Z,7.70
2019-03-17T18:56:25.891Z,7.60
2019-03-17T18:58:57.501Z,7.60
2019-03-17T19:01:29.958Z,7.60
2019-03-17T19:04:02.698Z,7.60
2019-03-17T19:06:34.164Z,7.40
2019-03-17T19:09:08.065Z,7.40
2019-03-17T19:11:39.347Z,7.50
2019-03-17T19:14:12.418Z,7.50
2019-03-17T19:16:46.433Z,7.50
2019-03-17T19:19:18.219Z,7.50
2019-03-17T19:21:49.598Z,7.40
2019-03-17T19:24:22.638Z,7.50
2019-03-17T19:26:55.985Z,7.50
2019-03-17T19:29:29.083Z,7.40
2019-03-17T19:32:02.356Z,7.60
2019-03-17T19:34:35.505Z,7.30
2019-03-17T19:37:06.990Z,7.40
2019-03-17T19:39:40.040Z,7.50
2019-03-17T19:42:12.723Z,7.50
2019-03-17T19:44:45.962Z,7.50
2019-03-17T19:47:17.979Z,7.70
2019-03-17T19:49:49.341Z,7.60
2019-03-17T19:52:21.770Z,7.70
2019-03-17T19:54:53.720Z,7.60
2019-03-17T19:57:25.506Z,7.60
2019-03-17T19:59:57.096Z,7.50
2019-03-17T20:02:30.306Z,7.50
2019-03-17T20:05:03.313Z,7.30
2019-03-17T20:07:34.648Z,7.30
2019-03-17T20:10:09.881Z,7.30
2019-03-17T20:12:41.822Z,7.30
2019-03-17T20:15:14.759Z,7.30
2019-03-17T20:17:47.971Z,7.20
2019-03-17T20:20:20.040Z,7.20
2019-03-17T20:22:53.295Z,7.20
2019-03-17T20:25:26.386Z,7.30
2019-03-17T20:27:59.688Z,7.40
2019-03-17T20:30:31.469Z,7.30
2019-03-17T20:33:05.002Z,7.30
2019-03-17T20:35:38.044Z,7.30
2019-03-17T20:38:09.559Z,7.30
2019-03-17T20:40:43.201Z,7.30
2019-03-17T20:43:29.079Z,7.30
2019-03-17T20:45:49.619Z,7.20
2019-03-17T20:48:22.686Z,7.10
2019-03-17T20:50:59.136Z,7.20
2019-03-17T20:53:31.641Z,7.30
2019-03-17T20:56:03.300Z,7.30
2019-03-17T20:58:35.480Z,7.30
2019-03-17T21:01:07.300Z,7.30
2019-03-17T21:03:40.503Z,7.30
2019-03-17T21:06:12.511Z,7.30
2019-03-17T21:08:45.846Z,7.30
2019-03-17T21:11:17.419Z,7.20
2019-03-17T21:13:50.416Z,7.30
2019-03-17T21:16:23.412Z,7.20
2019-03-17T21:18:55.845Z,7.40
2019-03-17T21:21:27.293Z,7.40
2019-03-17T21:24:00.488Z,7.40
2019-03-17T21:26:33.812Z,7.30
2019-03-17T21:29:06.785Z,7.30
2019-03-17T21:31:39.887Z,7.40
2019-03-17T21:34:11.358Z,7.30
2019-03-17T21:36:44.125Z,7.30
2019-03-17T21:39:18.787Z,7.30
2019-03-17T21:41:50.137Z,7.30
2019-03-17T21:44:23.279Z,7.30
2019-03-17T21:46:57.307Z,7.30
2019-03-17T21:49:30.570Z,7.30
2019-03-17T21:52:03.668Z,7.30
2019-03-17T21:54:36.710Z,7.30
2019-03-17T21:57:08.081Z,7.30
2019-03-17T21:59:39.658Z,7.30
2019-03-17T22:02:13.040Z,7.30
2019-03-17T22:04:45.507Z,7.20
2019-03-17T22:07:19.659Z,7.20
2019-03-17T22:09:53.286Z,7.30
2019-03-17T22:12:25.190Z,7.30
2019-03-17T22:14:57.851Z,7.20
2019-03-17T22:17:31.061Z,7.30
2019-03-17T22:20:02.763Z,7.30
2019-03-17T22:22:35.752Z,7.20
2019-03-17T22:25:09.304Z,7.20
2019-03-17T22:27:42.664Z,7.20
2019-03-17T22:30:14.287Z,7.20
2019-03-17T22:32:47.294Z,7.10
2019-03-17T22:35:20.995Z,7.10
2019-03-17T22:37:53.926Z,7.10
2019-03-17T22:40:27.821Z,7.00
2019-03-17T22:43:01.528Z,7.00
2019-03-17T22:45:34.687Z,6.90
2019-03-17T22:48:07.648Z,6.90
2019-03-17T22:50:46.072Z,6.90
2019-03-17T22:53:19.211Z,6.90
2019-03-17T22:56:00.457Z,6.90
2019-03-17T22:58:32.579Z,6.90
2019-03-17T23:01:06.432Z,6.80
2019-03-17T23:03:38.239Z,6.80
2019-03-17T23:06:10.528Z,6.70
2019-03-17T23:08:43.062Z,6.70
2019-03-17T23:11:15.334Z,6.70
2019-03-17T23:13:49.285Z,6.70
2019-03-17T23:16:22.459Z,6.80
2019-03-17T23:18:56.195Z,6.70
2019-03-17T23:21:28.940Z,6.60
2019-03-17T23:24:02.056Z,6.70
2019-03-17T23:26:35.306Z,6.70
2019-03-17T23:29:08.550Z,6.70
2019-03-17T23:31:40.726Z,6.80
2019-03-17T23:34:13.988Z,6.80
2019-03-17T23:36:45.856Z,6.60
2019-03-17T23:39:19.117Z,6.70
2019-03-17T23:41:52.413Z,6.70
2019-03-17T23:44:24.325Z,6.70
2019-03-17T23:46:56.077Z,6.70
2019-03-17T23:49:29.983Z,6.70
2019-03-17T23:52:03.761Z,6.60
2019-03-17T23:54:37.079Z,6.60
2019-03-17T23:57:10.335Z,6.60
2019-03-17T23:59:44.385Z,6.60
